Time;durP1;ratioP1;P1;durP2;ratioP2;P2;SDS_P1;SDS_P2;PMS_P1;PMS_P2;Temp;Humidity;BMP_temperature;BMP_pressure;BME280_temperature;BME280_humidity;BME280_pressure;Samples;Min_cycle;Max_cycle;Signal;HPM_P1;HPM_P2
2022/07/29 00:00:18;;;;;;;3.20;1.58;;;15.80;60.60;;;;;;604930;235;26857;-72
2022/07/29 00:02:45;;;;;;;2.55;1.50;;;15.70;61.00;;;;;;606284;235;26571;-72
2022/07/29 00:05:13;;;;;;;1.55;1.30;;;15.70;61.10;;;;;;605813;237;26889;-72
2022/07/29 00:07:41;;;;;;;2.67;1.50;;;15.70;62.00;;;;;;605566;237;26640;-73
2022/07/29 00:10:08;;;;;;;3.08;2.00;;;15.60;63.10;;;;;;605425;237;26603;-72
2022/07/29 00:12:35;;;;;;;2.67;1.77;;;15.60;63.10;;;;;;605251;237;26595;-73
2022/07/29 00:15:03;;;;;;;1.87;1.65;;;15.60;63.10;;;;;;605300;238;26824;-72
2022/07/29 00:17:31;;;;;;;2.08;1.60;;;15.60;63.10;;;;;;605288;237;26593;-72
2022/07/29 00:19:59;;;;;;;1.70;1.50;;;15.60;64.10;;;;;;604990;238;26845;-72
2022/07/29 00:22:26;;;;;;;2.12;1.92;;;15.50;63.90;;;;;;604968;238;26884;-72
2022/07/29 00:24:54;;;;;;;2.87;1.70;;;15.60;64.60;;;;;;604937;237;26591;-72
2022/07/29 00:27:21;;;;;;;2.60;2.10;;;15.50;64.80;;;;;;604973;237;26824;-72
2022/07/29 00:29:48;;;;;;;3.65;2.25;;;15.50;65.20;;;;;;604913;238;26574;-72
2022/07/29 00:32:16;;;;;;;2.60;2.25;;;15.50;65.50;;;;;;604928;238;26828;-72
2022/07/29 00:37:16;;;;;;;3.00;2.22;;;15.40;66.50;;;;;;604794;238;26839;-72
2022/07/29 00:39:43;;;;;;;2.87;1.95;;;15.40;67.30;;;;;;604677;238;26600;-72
2022/07/29 00:42:10;;;;;;;3.75;2.50;;;15.40;67.40;;;;;;604637;238;26827;-73
2022/07/29 00:44:38;;;;;;;4.07;2.55;;;15.40;68.10;;;;;;604695;232;26587;-72
2022/07/29 00:47:05;;;;;;;4.25;2.28;;;15.40;68.30;;;;;;604729;237;26834;-72
2022/07/29 00:49:33;;;;;;;3.97;2.50;;;15.30;69.10;;;;;;604592;238;26598;-72
2022/07/29 00:52:02;;;;;;;2.75;2.10;;;15.30;69.50;;;;;;604674;237;26552;-72
2022/07/29 00:54:30;;;;;;;3.35;2.25;;;15.20;70.60;;;;;;604623;238;26611;-73
2022/07/29 00:56:58;;;;;;;5.65;2.45;;;15.20;70.60;;;;;;604781;238;26602;-72
2022/07/29 00:59:26;;;;;;;2.50;2.20;;;15.20;70.70;;;;;;604707;238;26824;-72
2022/07/29 01:01:54;;;;;;;2.60;2.17;;;15.20;70.70;;;;;;604701;235;26833;-72
2022/07/29 01:04:22;;;;;;;2.87;2.20;;;15.10;71.30;;;;;;604699;238;26824;-72
2022/07/29 01:06:49;;;;;;;4.10;2.12;;;15.10;71.70;;;;;;604741;237;26563;-72
2022/07/29 01:09:16;;;;;;;3.05;2.20;;;15.10;72.40;;;;;;604704;232;26849;-72
2022/07/29 01:11:43;;;;;;;2.03;1.90;;;15.10;72.20;;;;;;604659;235;26591;-72
2022/07/29 01:14:10;;;;;;;3.08;2.25;;;15.10;72.50;;;;;;606309;236;26612;-72
2022/07/29 01:16:55;;;;;;;2.50;1.90;;;15.00;73.20;;;;;;605708;237;26645;-72
2022/07/29 01:19:29;;;;;;;2.80;2.30;;;15.00;73.10;;;;;;605055;237;26590;-72
2022/07/29 01:21:56;;;;;;;2.40;2.20;;;15.00;73.70;;;;;;605085;237;26583;-72
2022/07/29 01:24:53;;;;;;;2.30;2.10;;;15.00;73.70;;;;;;605191;238;26926;-72
2022/07/29 01:27:39;;;;;;;2.45;2.08;;;15.00;74.80;;;;;;596568;237;26683;-72
2022/07/29 01:30:07;;;;;;;1.95;1.77;;;15.00;74.80;;;;;;604851;238;26600;-72
2022/07/29 01:32:35;;;;;;;4.15;2.45;;;15.00;75.40;;;;;;604994;237;26598;-72
2022/07/29 01:35:06;;;;;;;2.45;2.05;;;15.00;75.30;;;;;;604876;238;26585;-73
2022/07/29 01:37:47;;;;;;;2.45;2.25;;;14.90;75.10;;;;;;604800;238;26605;-72
2022/07/29 01:40:16;;;;;;;3.35;2.33;;;14.90;75.40;;;;;;604818;238;26819;-72
2022/07/29 01:42:44;;;;;;;2.40;2.20;;;14.90;76.00;;;;;;605017;234;26586;-73
2022/07/29 01:45:13;;;;;;;1.80;1.70;;;14.90;76.10;;;;;;605383;238;26542;-72
2022/07/29 01:47:40;;;;;;;3.05;2.15;;;14.90;76.60;;;;;;605152;238;26606;-72
2022/07/29 01:50:08;;;;;;;3.00;1.92;;;14.90;76.80;;;;;;604692;238;26567;-72
2022/07/29 01:52:35;;;;;;;2.35;2.15;;;14.90;77.10;;;;;;604507;238;26817;-72
2022/07/29 01:55:05;;;;;;;2.83;2.20;;;14.80;77.80;;;;;;604423;235;26639;-71
2022/07/29 01:57:33;;;;;;;2.35;1.92;;;14.80;77.70;;;;;;604535;238;27190;-72
2022/07/29 02:00:00;;;;;;;2.22;2.03;;;14.80;77.90;;;;;;604669;238;26540;-72
2022/07/29 02:02:27;;;;;;;4.05;2.20;;;14.80;78.50;;;;;;604669;237;26845;-72
2022/07/29 02:04:55;;;;;;;2.05;1.73;;;14.70;79.40;;;;;;604715;238;26551;-72
2022/07/29 02:07:23;;;;;;;2.10;1.80;;;14.70;79.60;;;;;;604714;237;26583;-72
2022/07/29 02:09:51;;;;;;;2.55;2.00;;;14.60;80.00;;;;;;604632;237;26567;-71
2022/07/29 02:12:19;;;;;;;2.17;1.98;;;14.60;80.20;;;;;;604653;237;26595;-71
2022/07/29 02:14:47;;;;;;;2.12;2.03;;;14.60;80.20;;;;;;604903;238;26580;-71
2022/07/29 02:17:13;;;;;;;2.37;2.17;;;14.60;80.50;;;;;;604916;238;26562;-72
2022/07/29 02:19:40;;;;;;;2.40;1.98;;;14.60;80.90;;;;;;604956;238;26820;-71
2022/07/29 02:22:08;;;;;;;2.53;1.90;;;14.50;81.00;;;;;;604969;238;26568;-72
2022/07/29 02:24:35;;;;;;;2.03;1.90;;;14.50;81.60;;;;;;606144;235;26828;-72
2022/07/29 02:27:03;;;;;;;2.40;2.08;;;14.50;82.30;;;;;;606286;236;26556;-72
2022/07/29 02:29:30;;;;;;;2.65;2.00;;;14.40;82.40;;;;;;606028;237;26569;-72
2022/07/29 02:31:58;;;;;;;2.20;2.00;;;14.50;82.80;;;;;;605859;237;26561;-72
2022/07/29 02:34:26;;;;;;;2.03;1.90;;;14.50;82.90;;;;;;605710;237;26563;-72
2022/07/29 02:36:54;;;;;;;2.58;2.03;;;14.50;83.30;;;;;;605364;237;26679;-71
2022/07/29 02:39:22;;;;;;;2.75;1.92;;;14.50;82.90;;;;;;605300;237;26607;-72
2022/07/29 02:41:49;;;;;;;2.10;1.90;;;14.50;82.90;;;;;;605141;237;26853;-72
2022/07/29 02:44:16;;;;;;;1.98;1.87;;;14.50;83.30;;;;;;604883;238;26599;-72
2022/07/29 02:46:49;;;;;;;2.30;2.10;;;14.50;83.20;;;;;;605005;238;26836;-72
2022/07/29 02:49:28;;;;;;;1.98;1.87;;;14.60;83.00;;;;;;604954;237;26586;-72
2022/07/29 02:51:55;;;;;;;2.22;1.80;;;14.60;82.90;;;;;;604635;238;26625;-70
2022/07/29 02:54:37;;;;;;;2.33;2.10;;;14.70;82.80;;;;;;604751;238;26594;-70
2022/07/29 02:57:04;;;;;;;2.97;1.92;;;14.70;83.10;;;;;;601404;237;26648;-70
2022/07/29 02:59:32;;;;;;;2.00;1.80;;;14.70;82.60;;;;;;604653;238;26550;-70
2022/07/29 03:02:00;;;;;;;2.83;2.10;;;14.80;82.40;;;;;;604517;238;26591;-70
2022/07/29 03:04:28;;;;;;;2.00;1.75;;;14.80;82.20;;;;;;604751;237;26608;-70
2022/07/29 03:06:56;;;;;;;2.45;2.25;;;14.80;82.00;;;;;;604643;237;26603;-70
2022/07/29 03:09:24;;;;;;;2.67;2.10;;;14.90;82.10;;;;;;604902;238;26569;-70
2022/07/29 03:11:51;;;;;;;1.83;1.65;;;14.90;82.10;;;;;;604999;238;26594;-69
2022/07/29 03:14:18;;;;;;;2.60;2.00;;;14.90;81.90;;;;;;604808;237;26597;-69
2022/07/29 03:16:45;;;;;;;3.17;2.10;;;15.00;81.50;;;;;;604604;235;26823;-70
2022/07/29 03:19:12;;;;;;;2.22;1.85;;;15.00;81.60;;;;;;604641;232;26614;-70
2022/07/29 03:21:39;;;;;;;2.10;1.98;;;15.00;81.50;;;;;;604739;235;26856;-70
2022/07/29 03:24:07;;;;;;;3.37;1.98;;;15.00;81.20;;;;;;604699;238;26603;-70
2022/07/29 03:26:34;;;;;;;1.60;1.50;;;15.00;80.90;;;;;;604723;238;26833;-70
2022/07/29 03:29:01;;;;;;;3.55;1.98;;;15.00;81.10;;;;;;604716;237;26589;-70
2022/07/29 03:31:29;;;;;;;3.10;2.05;;;15.00;81.20;;;;;;604722;238;27286;-70
2022/07/29 03:33:57;;;;;;;1.87;1.73;;;15.00;81.20;;;;;;604708;237;26619;-70
2022/07/29 03:36:24;;;;;;;1.73;1.62;;;15.00;81.00;;;;;;605891;235;26610;-70
2022/07/29 03:38:52;;;;;;;2.12;1.92;;;15.00;80.90;;;;;;605942;237;26637;-70
2022/07/29 03:41:20;;;;;;;1.90;1.80;;;15.10;80.60;;;;;;605608;237;26650;-70
2022/07/29 03:43:48;;;;;;;1.70;1.60;;;15.10;80.30;;;;;;605480;237;26655;-70
2022/07/29 03:46:15;;;;;;;2.22;1.85;;;15.10;79.90;;;;;;605247;235;26633;-70
2022/07/29 03:48:43;;;;;;;2.08;1.70;;;15.10;79.80;;;;;;605275;237;26593;-70
2022/07/29 03:51:10;;;;;;;2.20;2.00;;;15.10;79.40;;;;;;605163;237;26849;-70
2022/07/29 03:53:37;;;;;;;2.03;1.62;;;15.20;79.60;;;;;;605180;238;26625;-70
2022/07/29 03:56:04;;;;;;;1.83;1.70;;;15.10;79.60;;;;;;604968;238;26825;-70
2022/07/29 03:58:32;;;;;;;2.55;1.90;;;15.20;78.90;;;;;;605052;238;26933;-70
2022/07/29 04:00:59;;;;;;;1.33;1.27;;;15.20;78.90;;;;;;604925;238;26593;-69
2022/07/29 04:03:27;;;;;;;3.45;1.92;;;15.20;79.10;;;;;;605002;237;26610;-70
2022/07/29 04:06:02;;;;;;;1.65;1.55;;;15.30;78.40;;;;;;605002;237;26597;-70
2022/07/29 04:08:29;;;;;;;1.95;1.80;;;15.30;78.40;;;;;;604166;238;26569;-70
2022/07/29 04:10:57;;;;;;;3.65;1.90;;;15.30;78.60;;;;;;604926;237;26590;-70
2022/07/29 04:13:24;;;;;;;3.75;1.85;;;15.40;78.50;;;;;;604758;237;26591;-70
2022/07/29 04:15:51;;;;;;;1.87;1.45;;;15.40;77.90;;;;;;604707;238;26818;-70
2022/07/29 04:18:18;;;;;;;1.60;1.40;;;15.40;78.20;;;;;;604688;237;26583;-70
2022/07/29 04:20:45;;;;;;;1.50;1.40;;;15.50;78.30;;;;;;604688;237;26848;-70
2022/07/29 04:23:13;;;;;;;1.70;1.60;;;15.50;77.70;;;;;;604733;238;26840;-70
2022/07/29 04:25:40;;;;;;;1.80;1.58;;;15.50;77.50;;;;;;604703;238;26868;-70
2022/07/29 04:28:07;;;;;;;1.77;1.67;;;15.50;77.80;;;;;;604694;237;26587;-70
2022/07/29 04:30:35;;;;;;;1.52;1.42;;;15.50;76.70;;;;;;604755;237;27227;-70
2022/07/29 04:33:02;;;;;;;2.55;1.52;;;15.50;76.70;;;;;;604730;237;26616;-70
2022/07/29 04:35:30;;;;;;;2.10;1.70;;;15.70;77.70;;;;;;604679;238;26585;-70
2022/07/29 04:37:58;;;;;;;1.90;1.80;;;15.70;76.00;;;;;;604672;237;26655;-70
2022/07/29 04:40:26;;;;;;;2.05;1.80;;;15.70;76.20;;;;;;604680;235;26578;-70
2022/07/29 04:42:54;;;;;;;1.77;1.60;;;15.80;76.60;;;;;;604669;237;26603;-70
2022/07/29 04:45:22;;;;;;;4.03;1.75;;;15.90;75.00;;;;;;604703;238;26596;-70
2022/07/29 04:47:49;;;;;;;1.70;1.60;;;15.90;75.00;;;;;;605933;235;26577;-70
2022/07/29 04:50:16;;;;;;;1.75;1.60;;;16.00;74.10;;;;;;605958;236;26852;-67
2022/07/29 04:52:44;;;;;;;5.25;2.10;;;16.10;74.70;;;;;;605665;237;26642;-70
2022/07/29 04:55:11;;;;;;;2.78;1.92;;;16.20;74.10;;;;;;605585;237;27007;-71
2022/07/29 04:57:39;;;;;;;2.78;2.00;;;16.30;72.90;;;;;;605298;237;26583;-71
2022/07/29 05:00:09;;;;;;;3.08;1.70;;;16.30;73.30;;;;;;605270;237;26574;-71
2022/07/29 05:02:36;;;;;;;2.15;1.83;;;16.30;73.30;;;;;;605292;237;26626;-70
2022/07/29 05:05:04;;;;;;;2.15;1.80;;;16.40;72.70;;;;;;605270;238;26870;-71
2022/07/29 05:07:31;;;;;;;3.35;2.00;;;16.50;71.80;;;;;;605019;238;26661;-71
2022/07/29 05:10:01;;;;;;;2.95;1.70;;;16.60;71.60;;;;;;604171;236;26810;-71
2022/07/29 05:12:28;;;;;;;1.77;1.65;;;16.80;70.70;;;;;;606951;236;26852;-70
2022/07/29 05:14:55;;;;;;;2.30;1.77;;;16.90;69.60;;;;;;610315;236;26620;-72
2022/07/29 05:17:23;;;;;;;3.37;2.08;;;17.10;70.10;;;;;;610311;235;26823;-70
2022/07/29 05:19:51;;;;;;;2.20;1.42;;;17.30;68.20;;;;;;610350;235;26577;-70
2022/07/29 05:22:18;;;;;;;3.20;1.60;;;17.50;68.20;;;;;;606393;235;26887;-71
2022/07/29 05:24:45;;;;;;;1.90;1.80;;;17.60;67.60;;;;;;605040;236;26837;-71
2022/07/29 05:27:12;;;;;;;2.85;1.80;;;17.70;66.90;;;;;;606780;235;26620;-72
2022/07/29 05:29:39;;;;;;;2.25;1.50;;;17.70;67.10;;;;;;605123;235;26805;-71
2022/07/29 05:32:07;;;;;;;1.85;1.75;;;17.80;65.20;;;;;;602684;235;26585;-70
2022/07/29 05:34:35;;;;;;;2.05;1.83;;;17.90;65.00;;;;;;603432;235;26596;-70
2022/07/29 05:37:03;;;;;;;2.05;1.50;;;18.00;65.80;;;;;;606500;236;26580;-70
2022/07/29 05:39:31;;;;;;;3.78;1.70;;;18.00;64.00;;;;;;603191;236;26620;-70
2022/07/29 05:41:58;;;;;;;2.12;1.70;;;18.00;63.90;;;;;;607982;236;26584;-71
2022/07/29 05:44:26;;;;;;;5.12;1.85;;;18.00;64.40;;;;;;603023;232;26593;-69
2022/07/29 05:46:53;;;;;;;2.05;1.60;;;18.00;64.50;;;;;;607704;236;26865;-70
2022/07/29 05:49:20;;;;;;;1.48;1.37;;;17.90;64.70;;;;;;605501;236;26575;-70
2022/07/29 05:51:49;;;;;;;2.72;1.90;;;18.00;64.30;;;;;;607625;236;26855;-69
2022/07/29 05:54:14;;;;;;;2.40;1.65;;;18.00;65.80;;;;;;602941;238;26605;-69
2022/07/29 05:56:42;;;;;;;3.05;1.73;;;18.00;64.10;;;;;;602739;233;26865;-70
2022/07/29 05:59:09;;;;;;;2.53;1.67;;;18.00;63.60;;;;;;605177;235;26581;-70
2022/07/29 06:01:39;;;;;;;4.37;2.10;;;18.10;64.00;;;;;;609526;235;26773;-70
2022/07/29 06:04:03;;;;;;;3.12;1.77;;;18.20;64.50;;;;;;605649;235;26674;-70
2022/07/29 06:06:30;;;;;;;1.70;1.60;;;18.30;63.90;;;;;;606029;235;26646;-70
2022/07/29 06:08:58;;;;;;;1.85;1.75;;;18.50;63.20;;;;;;602259;237;26893;-70
2022/07/29 06:11:25;;;;;;;3.03;1.83;;;18.70;62.90;;;;;;604733;238;26589;-70
2022/07/29 06:13:53;;;;;;;2.67;1.98;;;18.90;61.30;;;;;;605508;235;26827;-70
2022/07/29 06:16:19;;;;;;;1.85;1.75;;;19.10;60.00;;;;;;607604;235;26641;-69
2022/07/29 06:18:46;;;;;;;3.80;2.20;;;19.30;60.40;;;;;;607708;236;26828;-70
2022/07/29 06:21:14;;;;;;;3.72;2.12;;;19.70;59.20;;;;;;603152;236;26578;-70
2022/07/29 06:23:41;;;;;;;2.92;2.00;;;20.10;58.80;;;;;;606888;235;26876;-70
2022/07/29 06:26:08;;;;;;;3.92;2.22;;;20.50;58.30;;;;;;610892;235;26627;-70
2022/07/29 06:28:35;;;;;;;2.08;1.87;;;20.70;56.90;;;;;;610361;236;27381;-70
2022/07/29 06:31:02;;;;;;;2.03;1.83;;;20.60;57.20;;;;;;606013;236;26594;-70
2022/07/29 06:33:30;;;;;;;5.10;1.80;;;20.70;57.00;;;;;;608790;236;26972;-70
2022/07/29 06:35:58;;;;;;;2.92;1.95;;;20.60;56.40;;;;;;602744;238;26555;-70
2022/07/29 06:38:26;;;;;;;4.32;2.50;;;20.60;56.30;;;;;;603093;237;26586;-70
2022/07/29 06:43:26;;;;;;;2.95;2.08;;;20.60;56.30;;;;;;602173;232;26609;-69
2022/07/29 06:45:54;;;;;;;10.30;2.33;;;20.60;56.40;;;;;;603682;238;26650;-69
2022/07/29 06:48:21;;;;;;;2.53;2.08;;;20.60;56.10;;;;;;603220;238;26550;-70
2022/07/29 06:50:49;;;;;;;2.50;1.98;;;20.70;56.30;;;;;;602497;238;26585;-70
2022/07/29 06:53:16;;;;;;;3.15;1.92;;;20.60;56.30;;;;;;602218;236;26609;-70
2022/07/29 06:55:44;;;;;;;2.95;1.90;;;20.70;56.30;;;;;;607873;235;26640;-70
2022/07/29 06:58:11;;;;;;;3.30;1.83;;;20.80;55.80;;;;;;602973;238;26915;-70
2022/07/29 07:00:38;;;;;;;3.47;2.17;;;20.80;56.10;;;;;;602600;236;26562;-70
2022/07/29 07:03:05;;;;;;;2.83;2.05;;;20.80;55.90;;;;;;604123;237;26922;-70
2022/07/29 07:05:32;;;;;;;2.78;1.70;;;20.90;55.80;;;;;;612018;235;26637;-70
2022/07/29 07:08:00;;;;;;;1.60;1.50;;;20.90;55.70;;;;;;606939;236;27284;-70
2022/07/29 07:10:27;;;;;;;2.60;1.80;;;20.90;55.70;;;;;;604023;235;26587;-70
2022/07/29 07:12:54;;;;;;;4.40;2.10;;;20.90;55.70;;;;;;609839;235;26883;-70
2022/07/29 07:15:22;;;;;;;4.18;1.85;;;21.00;55.30;;;;;;606062;235;26871;-69
2022/07/29 07:17:49;;;;;;;2.25;1.83;;;21.20;55.20;;;;;;604734;237;26847;-71
2022/07/29 07:20:17;;;;;;;5.47;1.90;;;21.30;54.80;;;;;;602238;238;26840;-72
2022/07/29 07:22:44;;;;;;;2.67;2.00;;;21.40;54.80;;;;;;604250;238;26671;-72
2022/07/29 07:25:12;;;;;;;2.17;1.70;;;21.60;54.30;;;;;;609126;235;26831;-72
2022/07/29 07:27:39;;;;;;;2.67;1.50;;;21.60;54.30;;;;;;611156;235;26635;-73
2022/07/29 07:30:08;;;;;;;4.05;2.03;;;21.70;53.50;;;;;;606854;236;26621;-74
2022/07/29 07:32:34;;;;;;;3.70;1.58;;;21.70;53.50;;;;;;603714;238;26860;-73
2022/07/29 07:35:02;;;;;;;4.15;1.67;;;21.80;53.70;;;;;;602534;237;26586;-72
2022/07/29 07:37:29;;;;;;;2.35;1.58;;;21.80;53.00;;;;;;603131;236;26589;-73
2022/07/29 07:39:57;;;;;;;2.47;1.67;;;22.10;52.70;;;;;;608446;235;26633;-72
2022/07/29 07:42:25;;;;;;;4.28;2.03;;;22.30;52.50;;;;;;607592;232;26672;-71
2022/07/29 07:44:53;;;;;;;2.17;1.98;;;22.60;52.20;;;;;;610288;236;26612;-71
2022/07/29 07:47:20;;;;;;;2.80;1.48;;;22.60;52.30;;;;;;603108;236;26605;-71
2022/07/29 07:49:47;;;;;;;3.25;1.83;;;22.70;51.80;;;;;;607630;236;26857;-71
2022/07/29 07:52:14;;;;;;;2.05;1.90;;;22.80;51.30;;;;;;603133;238;26829;-71
2022/07/29 07:54:43;;;;;;;2.45;1.60;;;22.80;51.40;;;;;;608200;236;26886;-72
2022/07/29 07:57:09;;;;;;;1.67;1.58;;;22.90;51.50;;;;;;602938;236;26832;-72
2022/07/29 07:59:36;;;;;;;2.92;1.52;;;23.00;51.10;;;;;;604058;235;26582;-72
2022/07/29 08:02:03;;;;;;;2.67;1.77;;;23.10;50.30;;;;;;601651;236;26838;-71
2022/07/29 08:04:30;;;;;;;2.05;1.35;;;23.30;51.10;;;;;;606473;236;26678;-71
2022/07/29 08:06:58;;;;;;;2.25;1.42;;;23.60;50.20;;;;;;609961;236;26837;-71
2022/07/29 08:09:25;;;;;;;1.60;1.50;;;23.80;49.30;;;;;;601936;236;26589;-71
2022/07/29 08:11:52;;;;;;;2.30;1.50;;;23.90;48.50;;;;;;601941;239;27074;-71
2022/07/29 08:14:19;;;;;;;1.65;1.42;;;23.90;48.40;;;;;;603558;237;26587;-72
2022/07/29 08:16:46;;;;;;;1.87;1.73;;;24.00;47.70;;;;;;602999;237;26551;-72
2022/07/29 08:19:14;;;;;;;2.58;1.30;;;24.10;48.20;;;;;;608766;236;26588;-71
2022/07/29 08:21:42;;;;;;;1.95;1.20;;;24.00;47.40;;;;;;604427;237;26619;-72
2022/07/29 08:26:43;;;;;;;1.80;1.45;;;24.00;47.20;;;;;;602927;237;26645;-71
2022/07/29 08:29:11;;;;;;;2.17;1.30;;;24.00;47.70;;;;;;605016;237;26588;-71
2022/07/29 08:31:39;;;;;;;1.75;1.65;;;24.00;47.90;;;;;;602926;238;26619;-72
2022/07/29 08:34:07;;;;;;;1.40;1.30;;;24.00;48.30;;;;;;603988;234;26629;-72
2022/07/29 08:36:34;;;;;;;1.65;1.42;;;24.00;47.90;;;;;;602211;239;27165;-72
2022/07/29 08:39:02;;;;;;;1.45;1.25;;;24.00;48.40;;;;;;608961;235;26587;-72
2022/07/29 08:41:29;;;;;;;1.67;1.50;;;24.00;47.20;;;;;;604757;235;26822;-74
2022/07/29 08:43:56;;;;;;;2.05;1.37;;;24.00;47.30;;;;;;605163;236;26588;-73
2022/07/29 08:46:23;;;;;;;1.30;1.20;;;24.10;47.00;;;;;;603539;237;26815;-72
2022/07/29 08:48:50;;;;;;;1.92;1.27;;;24.10;46.80;;;;;;611638;235;26648;-72
2022/07/29 08:51:17;;;;;;;1.40;1.30;;;24.10;47.00;;;;;;603548;235;26838;-69
2022/07/29 08:53:45;;;;;;;1.95;1.70;;;24.20;46.50;;;;;;608030;236;26644;-69
2022/07/29 08:56:13;;;;;;;1.42;1.33;;;24.20;45.60;;;;;;605681;236;27331;-70
2022/07/29 08:58:40;;;;;;;3.05;1.35;;;24.00;46.60;;;;;;604949;236;26564;-69
2022/07/29 09:01:07;;;;;;;1.85;1.35;;;23.80;46.00;;;;;;609207;236;26610;-69
2022/07/29 09:03:34;;;;;;;1.35;1.20;;;23.60;46.90;;;;;;602617;238;26850;-69
2022/07/29 09:06:01;;;;;;;1.70;1.50;;;23.50;45.90;;;;;;603878;238;26555;-68
2022/07/29 09:08:28;;;;;;;1.45;1.35;;;23.40;46.00;;;;;;602968;236;27052;-69
2022/07/29 09:10:56;;;;;;;1.48;1.25;;;23.40;47.00;;;;;;605349;232;26551;-70
2022/07/29 09:13:24;;;;;;;1.98;1.00;;;23.40;47.10;;;;;;606984;236;26574;-70
2022/07/29 09:15:52;;;;;;;1.67;1.58;;;23.60;46.60;;;;;;602957;237;26554;-70
2022/07/29 09:18:32;;;;;;;7.60;2.10;;;23.80;46.70;;;;;;606991;236;26579;-70
2022/07/29 09:23:35;;;;;;;4.62;2.05;;;24.40;46.90;;;;;;610934;235;26657;-69
2022/07/29 09:26:02;;;;;;;2.95;1.70;;;24.30;46.80;;;;;;607102;236;26959;-71
2022/07/29 09:28:30;;;;;;;2.15;1.70;;;24.60;46.10;;;;;;607396;234;26916;-71
2022/07/29 09:30:58;;;;;;;2.78;1.73;;;24.70;45.90;;;;;;603545;236;26660;-67
2022/07/29 09:33:25;;;;;;;21.00;4.15;;;24.70;45.00;;;;;;604671;235;26618;-70
2022/07/29 09:35:58;;;;;;;117.82;22.23;;;24.70;45.70;;;;;;603229;232;27117;-70
2022/07/29 09:38:25;;;;;;;28.17;6.78;;;24.70;44.60;;;;;;605600;234;26820;-73
2022/07/29 09:40:57;;;;;;;35.67;7.43;;;24.80;44.20;;;;;;603290;237;26585;-67
2022/07/29 09:43:24;;;;;;;27.40;7.85;;;24.90;44.10;;;;;;604763;237;26599;-66
2022/07/29 09:45:52;;;;;;;29.55;7.30;;;25.00;43.60;;;;;;602236;234;26847;-68
2022/07/29 09:48:20;;;;;;;10.75;2.90;;;25.10;43.10;;;;;;603747;232;26693;-68
2022/07/29 09:50:49;;;;;;;2.08;1.45;;;25.30;43.20;;;;;;607039;235;26869;-67
2022/07/29 09:53:23;;;;;;;30.88;5.45;;;25.30;43.00;;;;;;605449;235;26866;-68
2022/07/29 09:55:51;;;;;;;2.00;1.73;;;25.50;42.80;;;;;;601857;232;26577;-68
2022/07/29 09:58:19;;;;;;;2.47;1.75;;;25.50;43.80;;;;;;604767;236;26576;-68
2022/07/29 10:00:47;;;;;;;2.60;1.95;;;25.60;42.30;;;;;;606648;236;26558;-67
2022/07/29 10:03:15;;;;;;;3.15;1.92;;;25.70;41.50;;;;;;603530;236;26597;-67
2022/07/29 10:05:42;;;;;;;4.40;1.90;;;25.60;41.50;;;;;;603884;236;26588;-66
2022/07/29 10:08:09;;;;;;;1.52;1.42;;;25.80;41.50;;;;;;607959;236;26587;-66
2022/07/29 10:10:36;;;;;;;4.40;1.90;;;26.00;41.10;;;;;;602813;237;26827;-67
2022/07/29 10:13:04;;;;;;;2.75;1.73;;;26.10;41.50;;;;;;608234;236;26656;-67
2022/07/29 10:15:32;;;;;;;3.33;1.77;;;26.20;41.00;;;;;;602057;238;26983;-67
2022/07/29 10:18:00;;;;;;;2.47;1.40;;;26.20;40.90;;;;;;603926;236;26582;-67
2022/07/29 10:20:28;;;;;;;1.58;1.20;;;26.20;40.00;;;;;;605370;236;26577;-67
2022/07/29 10:22:55;;;;;;;1.73;1.42;;;26.20;39.50;;;;;;603848;238;26615;-67
2022/07/29 10:25:22;;;;;;;1.12;1.02;;;26.20;39.50;;;;;;602776;236;26600;-67
2022/07/29 10:27:51;;;;;;;1.55;1.12;;;26.40;38.90;;;;;;603864;237;26804;-67
2022/07/29 10:30:16;;;;;;;1.95;1.35;;;26.60;38.20;;;;;;603091;238;26575;-67
2022/07/29 10:33:02;;;;;;;1.33;1.10;;;26.70;39.00;;;;;;602710;237;27238;-67
2022/07/29 10:35:49;;;;;;;1.10;1.10;;;26.80;38.10;;;;;;591834;238;26654;-67
2022/07/29 10:38:27;;;;;;;1.20;1.10;;;27.10;39.50;;;;;;608016;235;26571;-67
2022/07/29 10:43:46;;;;;;;1.52;1.17;;;27.40;38.40;;;;;;612975;234;26879;-70
2022/07/29 10:46:13;;;;;;;2.37;1.70;;;27.80;38.50;;;;;;607451;233;26658;-65
2022/07/29 10:48:52;;;;;;;2.20;1.35;;;28.00;38.10;;;;;;604791;234;27051;-66
2022/07/29 10:51:19;;;;;;;4.90;1.70;;;28.20;38.10;;;;;;602769;237;26597;-67
2022/07/29 10:53:46;;;;;;;3.55;1.77;;;28.30;38.00;;;;;;603491;237;27250;-66
2022/07/29 10:56:23;;;;;;;2.28;1.60;;;28.50;37.30;;;;;;608446;235;26601;-66
2022/07/29 10:58:58;;;;;;;2.95;1.42;;;28.90;37.60;;;;;;607310;235;26833;-66
2022/07/29 11:01:28;;;;;;;2.00;1.23;;;28.80;37.10;;;;;;603768;231;26628;-66
2022/07/29 11:03:56;;;;;;;7.85;1.70;;;29.00;37.10;;;;;;602149;238;26843;-66
2022/07/29 11:06:25;;;;;;;2.15;1.40;;;29.00;36.10;;;;;;602428;237;26584;-66
2022/07/29 11:08:50;;;;;;;2.42;1.40;;;28.80;35.90;;;;;;606143;236;26981;-66
2022/07/29 11:11:36;;;;;;;2.05;1.20;;;28.70;35.90;;;;;;605446;236;26850;-66
2022/07/29 11:14:01;;;;;;;2.90;1.52;;;28.60;36.00;;;;;;608847;236;26615;-66
2022/07/29 11:16:29;;;;;;;3.30;1.33;;;28.30;36.40;;;;;;604904;236;27200;-66
2022/07/29 11:19:24;;;;;;;1.83;1.50;;;27.70;36.60;;;;;;600867;238;26582;-66
2022/07/29 11:21:52;;;;;;;4.05;1.62;;;27.70;36.60;;;;;;605779;236;26578;-67
2022/07/29 11:24:28;;;;;;;2.80;1.42;;;27.50;37.90;;;;;;605309;236;26831;-66
2022/07/29 11:27:06;;;;;;;1.77;1.35;;;27.40;37.70;;;;;;603860;238;26588;-66
2022/07/29 11:29:33;;;;;;;2.08;1.60;;;27.40;38.20;;;;;;603284;238;27251;-67
2022/07/29 11:32:09;;;;;;;2.45;1.55;;;27.40;38.00;;;;;;602192;238;26578;-67
2022/07/29 11:34:40;;;;;;;1.65;1.40;;;27.40;38.10;;;;;;602112;238;26559;-66
2022/07/29 11:37:21;;;;;;;1.45;1.33;;;27.30;37.40;;;;;;603725;238;26976;-67
2022/07/29 11:40:09;;;;;;;1.95;1.55;;;27.40;38.00;;;;;;601790;238;26582;-67
2022/07/29 11:42:44;;;;;;;4.15;1.60;;;27.50;38.40;;;;;;608683;231;26895;-66
2022/07/29 11:45:14;;;;;;;2.97;1.55;;;27.60;38.80;;;;;;603169;236;26940;-66
2022/07/29 11:47:41;;;;;;;2.35;1.52;;;27.60;38.10;;;;;;604752;238;26842;-67
2022/07/29 11:50:08;;;;;;;2.78;1.52;;;27.60;38.00;;;;;;607548;235;26626;-67
2022/07/29 11:52:37;;;;;;;3.30;1.67;;;27.70;38.00;;;;;;604208;235;27288;-67
2022/07/29 11:55:06;;;;;;;3.00;1.80;;;27.70;38.10;;;;;;602302;238;26581;-66
2022/07/29 11:57:32;;;;;;;2.35;1.77;;;27.70;38.10;;;;;;602602;237;26590;-66
2022/07/29 12:00:00;;;;;;;5.70;1.80;;;27.70;38.50;;;;;;602519;238;26692;-66
2022/07/29 12:02:27;;;;;;;2.03;1.60;;;27.70;38.40;;;;;;602316;239;26609;-66
2022/07/29 12:04:55;;;;;;;3.25;1.52;;;27.70;38.60;;;;;;600864;238;26615;-66
2022/07/29 12:07:30;;;;;;;3.95;1.70;;;27.70;38.80;;;;;;601942;238;26867;-66
2022/07/29 12:09:58;;;;;;;3.37;2.00;;;27.80;38.70;;;;;;601442;239;26645;-66
2022/07/29 12:12:25;;;;;;;1.73;1.62;;;27.80;39.30;;;;;;602215;239;27204;-66
2022/07/29 12:14:55;;;;;;;2.33;1.55;;;27.80;39.20;;;;;;602190;239;26892;-66
2022/07/29 12:17:34;;;;;;;4.47;1.80;;;27.90;39.50;;;;;;601875;239;26582;-67
2022/07/29 12:20:02;;;;;;;1.90;1.80;;;27.90;39.50;;;;;;601975;239;26594;-66
2022/07/29 12:22:30;;;;;;;3.80;2.00;;;28.00;39.80;;;;;;602194;239;26808;-66
2022/07/29 12:25:02;;;;;;;2.12;1.80;;;28.20;39.90;;;;;;602290;239;26550;-66
2022/07/29 12:27:29;;;;;;;3.08;1.98;;;28.50;39.80;;;;;;602245;239;26784;-66
2022/07/29 12:29:57;;;;;;;2.45;1.60;;;28.70;39.50;;;;;;602234;235;26554;-66
2022/07/29 12:32:25;;;;;;;3.85;2.08;;;29.10;39.40;;;;;;602204;239;26577;-66
2022/07/29 12:34:52;;;;;;;2.22;1.98;;;29.00;39.40;;;;;;601398;239;26553;-65
2022/07/29 12:37:20;;;;;;;3.95;2.12;;;29.60;39.50;;;;;;602026;237;26546;-66
2022/07/29 12:39:47;;;;;;;3.40;2.28;;;30.00;38.80;;;;;;602024;239;26801;-67
2022/07/29 12:42:14;;;;;;;5.35;2.08;;;30.20;38.50;;;;;;602742;235;26569;-66
2022/07/29 12:44:44;;;;;;;3.10;2.08;;;30.30;38.10;;;;;;602806;238;27220;-66
2022/07/29 12:47:11;;;;;;;2.87;2.35;;;30.70;38.00;;;;;;602095;232;26831;-66
2022/07/29 12:49:38;;;;;;;4.03;2.55;;;31.10;37.70;;;;;;608082;236;26642;-66
2022/07/29 12:52:29;;;;;;;5.80;2.20;;;31.40;36.40;;;;;;603032;233;26804;-66
2022/07/29 12:54:57;;;;;;;1.98;1.87;;;31.50;36.40;;;;;;609912;235;26862;-66
2022/07/29 12:57:24;;;;;;;2.90;2.20;;;31.70;36.70;;;;;;604317;236;26584;-66
2022/07/29 13:00:00;;;;;;;4.10;2.30;;;31.90;36.30;;;;;;607401;235;26860;-67
2022/07/29 13:02:27;;;;;;;5.03;2.10;;;32.10;36.30;;;;;;608311;236;26893;-67
2022/07/29 13:04:57;;;;;;;2.40;2.20;;;32.00;36.00;;;;;;603176;234;26607;-66